map of CIT home
CIT - Airport
Location
City:  Shymkent, Ongtüstik Qazaqstan, Kazakhstan
Near (Alt.):Shimkent
Name:Shymkent International Airport
ICAO:UAII
IATA:CIT

Details
Type:Airport (Aerodrome, Airfield)
Use:Public/Civil, International (customs port of entry)
Latitude:42°21'54"N (42.365000)
Longitude:69°28'32"E (69.475556)
Elevation:1385 ft (422 m)
Variation:5.85°E (WMM2015 magnetic declination)
0.05° annual change
Runways:1
Longest:10827 × 148 ft (3300 × 45 m), paved

Time
Time Zone:UTC+6
Local Time:

Weather
METAR:UAII 211500Z 06002MPS CAVOK 24/06 Q1016 R10/0///70 NOSIG RMK QFE727/0969
TAF:UAII 211100Z 2112/2212 06007MPS 6000 SCT050 BKN100 TX28/2209Z TN15/2201Z
TEMPO 2112/2120 03006G11MPS
TEMPO 2120/2203 12005MPS SCT040CB

Related Locations
Nearby:
Farthest:IPC: 11380 mi / 18315 km
Easter Island (Isla de Pascua, Rapa Nui) [Mataveri Intl], VS, CL

Find:

   beyond  
but within

Other Information
Maps:
NOTAMs:
Links:
Sources:

  
flag of Kazakhstan   

Sectional Chart

Flight Planning
at skyvector.com

Satellite Image

Google Maps Satellite view

 

Copyright © 2004-2018 Karl L. Swartz. All rights reserved.
The Great Circle Mapper name and logo are trademarks of the Great Circle Mapper.
All other trademarks mentioned herein belong to their respective owners.
Please see credits for attibutions and further copyright information.

  Follow gcmap on Facebook Follow gcmap on Twitter Follow gcmap on Google+ GCmap on LinkedIn

hCard Microformat

Geo Microformat